createdAt,value
2022-08-16T00:00:44.470Z,97841.41
2022-08-16T00:03:13.417Z,97842.63
2022-08-16T00:05:48.509Z,97842.97
2022-08-16T00:08:36.179Z,97846.69
2022-08-16T00:11:06.888Z,97850.00
2022-08-16T00:13:41.650Z,97849.34
2022-08-16T00:17:00.718Z,97855.72
2022-08-16T00:18:59.832Z,97872.72
2022-08-16T00:21:29.153Z,97870.22
2022-08-16T00:23:56.581Z,97859.13
2022-08-16T00:26:36.452Z,97859.44
2022-08-16T00:29:15.673Z,97863.47
2022-08-16T00:32:01.212Z,97861.66
2022-08-16T00:34:44.607Z,97867.53
2022-08-16T00:37:24.682Z,97875.41
2022-08-16T00:39:57.099Z,97873.38
2022-08-16T00:42:30.434Z,97879.63
2022-08-16T00:45:16.686Z,97879.28
2022-08-16T00:47:49.465Z,97884.16
2022-08-16T00:50:21.905Z,97880.59
2022-08-16T00:53:10.912Z,97888.09
2022-08-16T00:55:47.065Z,97893.31
2022-08-16T00:58:34.658Z,97896.53
2022-08-16T01:01:08.383Z,97888.66
2022-08-16T01:03:41.714Z,97891.50
2022-08-16T01:06:39.916Z,97890.78
2022-08-16T01:09:01.641Z,97888.09
2022-08-16T01:11:31.380Z,97892.28
2022-08-16T01:14:10.307Z,97892.97
2022-08-16T01:16:40.218Z,97891.13
2022-08-16T01:19:33.740Z,97891.97
2022-08-16T01:22:47.632Z,97887.59
2022-08-16T01:25:15.107Z,97882.88
2022-08-16T01:27:50.299Z,97885.22
2022-08-16T01:30:49.687Z,97891.91
2022-08-16T01:33:19.965Z,97893.94
2022-08-16T01:36:02.011Z,97903.66
2022-08-16T01:38:56.916Z,97895.41
2022-08-16T01:41:31.283Z,97895.56
2022-08-16T01:44:01.138Z,97894.03
2022-08-16T01:46:40.797Z,97892.84
2022-08-16T01:49:20.559Z,97892.63
2022-08-16T01:51:56.168Z,97898.00
2022-08-16T01:54:31.015Z,97894.34
2022-08-16T01:57:00.148Z,97893.97
2022-08-16T01:59:28.863Z,97892.28
2022-08-16T02:01:59.701Z,97899.97
2022-08-16T02:04:44.595Z,97897.97
2022-08-16T02:07:18.678Z,97900.97
2022-08-16T02:09:57.031Z,97902.16
2022-08-16T02:12:49.855Z,97905.81
2022-08-16T02:15:25.382Z,97902.78
2022-08-16T02:17:59.090Z,97904.78
2022-08-16T02:20:32.899Z,97913.69
2022-08-16T02:23:05.859Z,97919.03
2022-08-16T02:25:52.675Z,97913.84
2022-08-16T02:28:24.891Z,97912.13
2022-08-16T02:30:54.047Z,97924.88
2022-08-16T02:33:24.766Z,97918.81
2022-08-16T02:36:14.265Z,97929.91
2022-08-16T02:39:00.957Z,97927.34
2022-08-16T02:41:27.797Z,97925.19
2022-08-16T02:43:54.619Z,97920.66
2022-08-16T02:46:33.294Z,97917.44
2022-08-16T02:49:02.262Z,97916.25
2022-08-16T02:51:29.427Z,97921.94
2022-08-16T02:53:59.193Z,97920.06
2022-08-16T02:56:32.305Z,97922.44
2022-08-16T02:59:00.308Z,97926.78
2022-08-16T03:01:33.544Z,97929.09
2022-08-16T03:04:28.981Z,97923.88
2022-08-16T03:06:56.362Z,97924.88
2022-08-16T03:09:28.841Z,97926.72
2022-08-16T03:11:57.167Z,97929.03
2022-08-16T03:14:25.339Z,97940.59
2022-08-16T03:17:00.298Z,97928.34
2022-08-16T03:19:47.619Z,97934.72
2022-08-16T03:22:28.426Z,97945.81
2022-08-16T03:25:02.891Z,97942.16
2022-08-16T03:27:32.282Z,97938.06
2022-08-16T03:30:17.376Z,97939.09
2022-08-16T03:32:51.386Z,97946.81
2022-08-16T03:35:23.830Z,97941.59
2022-08-16T03:38:04.930Z,97946.13
2022-08-16T03:40:51.876Z,97945.44
2022-08-16T03:43:21.471Z,97944.38
2022-08-16T03:45:52.694Z,97938.16
2022-08-16T03:48:36.661Z,97944.38
2022-08-16T03:51:12.390Z,97943.66
2022-08-16T03:53:41.726Z,97944.00
2022-08-16T03:56:19.609Z,97947.06
2022-08-16T03:58:51.095Z,97946.91
2022-08-16T04:01:23.010Z,97958.34
2022-08-16T04:03:51.494Z,97954.09
2022-08-16T04:06:20.710Z,97957.28
2022-08-16T04:08:48.204Z,97948.50
2022-08-16T04:11:16.394Z,97958.94
2022-08-16T04:14:00.997Z,97965.00
2022-08-16T04:16:34.476Z,97967.53
2022-08-16T04:19:04.431Z,97970.84
2022-08-16T04:21:34.836Z,97975.19
2022-08-16T04:24:07.841Z,97983.16
2022-08-16T04:26:36.304Z,97976.13
2022-08-16T04:29:17.016Z,97986.19
2022-08-16T04:31:56.601Z,97983.81
2022-08-16T04:34:32.331Z,97992.00
2022-08-16T04:37:01.015Z,97995.13
2022-08-16T04:39:44.922Z,97997.13
2022-08-16T04:42:16.082Z,97996.91
2022-08-16T04:44:54.537Z,98003.28
2022-08-16T04:47:35.469Z,98001.94
2022-08-16T04:50:10.765Z,98005.94
2022-08-16T04:52:39.010Z,98013.56
2022-08-16T04:55:15.218Z,98015.22
2022-08-16T04:57:43.616Z,98023.75
2022-08-16T05:00:30.932Z,98022.88
2022-08-16T05:02:58.905Z,98018.00
2022-08-16T05:05:32.651Z,98018.16
2022-08-16T05:08:29.870Z,98021.53
2022-08-16T05:10:48.755Z,98018.53
2022-08-16T05:13:17.651Z,98018.22
2022-08-16T05:15:44.794Z,98017.22
2022-08-16T05:18:15.784Z,98007.31
2022-08-16T05:21:01.372Z,98017.31
2022-08-16T05:23:31.728Z,98018.53
2022-08-16T05:25:59.860Z,98012.16
2022-08-16T05:28:30.961Z,98018.22
2022-08-16T05:31:06.729Z,98027.72
2022-08-16T05:33:34.038Z,98028.47
2022-08-16T05:36:03.660Z,98027.56
2022-08-16T05:38:39.006Z,98025.78
2022-08-16T05:41:07.520Z,98035.78
2022-08-16T05:43:43.438Z,98032.59
2022-08-16T05:46:30.467Z,98037.81
2022-08-16T05:49:08.576Z,98033.31
2022-08-16T05:51:38.501Z,98047.28
2022-08-16T05:54:09.638Z,98044.97
2022-08-16T05:56:40.183Z,98049.16
2022-08-16T05:59:08.198Z,98048.47
2022-08-16T06:01:37.805Z,98047.16
2022-08-16T06:04:13.728Z,98048.53
2022-08-16T06:06:57.391Z,98050.03
2022-08-16T06:09:43.444Z,98049.44
2022-08-16T06:12:27.446Z,98056.88
2022-08-16T06:15:04.264Z,98056.72
2022-08-16T06:17:43.915Z,98051.53
2022-08-16T06:20:24.088Z,98058.63
2022-08-16T06:23:03.241Z,98062.69
2022-08-16T06:25:36.008Z,98061.38
2022-08-16T06:28:10.144Z,98064.44
2022-08-16T06:30:44.073Z,98057.91
2022-08-16T06:33:22.185Z,98064.81
2022-08-16T06:35:55.324Z,98070.25
2022-08-16T06:38:32.881Z,98076.94
2022-08-16T06:41:13.744Z,98070.25
2022-08-16T06:43:42.041Z,98075.66
2022-08-16T06:46:32.027Z,98067.44
2022-08-16T06:49:05.460Z,98068.47
2022-08-16T06:51:47.980Z,98073.19
2022-08-16T06:54:16.926Z,98080.78
2022-08-16T06:56:44.292Z,98079.44
2022-08-16T06:59:13.359Z,98079.97
2022-08-16T07:01:45.193Z,98084.16
2022-08-16T07:04:32.653Z,98083.53
2022-08-16T07:07:03.005Z,98092.94
2022-08-16T07:09:30.645Z,98085.56
2022-08-16T07:12:03.200Z,98090.59
2022-08-16T07:14:33.352Z,98089.59
2022-08-16T07:17:01.278Z,98088.66
2022-08-16T07:20:29.990Z,98093.22
2022-08-16T07:22:38.410Z,98089.72
2022-08-16T07:25:14.713Z,98089.34
2022-08-16T07:27:44.361Z,98087.19
2022-08-16T07:30:38.457Z,98083.31
2022-08-16T07:33:05.823Z,98077.44
2022-08-16T07:35:35.306Z,98080.63
2022-08-16T07:38:05.046Z,98091.25
2022-08-16T07:40:59.202Z,98087.03
2022-08-16T07:43:23.721Z,98090.91
2022-08-16T07:45:55.782Z,98094.78
2022-08-16T07:48:24.096Z,98098.66
2022-08-16T07:50:58.402Z,98102.53
2022-08-16T07:53:31.223Z,98095.97
2022-08-16T07:56:00.752Z,98100.69
2022-08-16T07:58:34.858Z,98102.72
2022-08-16T08:01:11.039Z,98107.28
2022-08-16T08:03:49.001Z,98101.22
2022-08-16T08:06:19.415Z,98098.66
2022-08-16T08:08:51.668Z,98111.63
2022-08-16T08:11:23.694Z,98114.47
2022-08-16T08:13:55.828Z,98115.66
2022-08-16T08:16:30.363Z,98118.50
2022-08-16T08:19:02.756Z,98122.03
2022-08-16T08:21:59.087Z,98116.28
2022-08-16T08:24:32.330Z,98129.25
2022-08-16T08:27:04.038Z,98134.13
2022-08-16T08:29:37.665Z,98130.28
2022-08-16T08:32:58.397Z,98129.41
2022-08-16T08:35:03.123Z,98128.56
2022-08-16T08:37:54.325Z,98126.00
2022-08-16T08:40:24.488Z,98119.56
2022-08-16T08:43:00.876Z,98125.28
2022-08-16T08:45:52.964Z,98130.00
2022-08-16T08:48:33.977Z,98126.94
2022-08-16T08:51:10.147Z,98130.63
2022-08-16T08:53:39.796Z,98127.22
2022-08-16T08:56:22.610Z,98128.03
2022-08-16T08:58:58.176Z,98132.88
2022-08-16T09:01:36.793Z,98136.59
2022-08-16T09:04:14.470Z,98133.16
2022-08-16T09:06:44.541Z,98125.19
2022-08-16T09:09:16.803Z,98127.53
2022-08-16T09:11:50.944Z,98126.53
2022-08-16T09:14:24.330Z,98124.97
2022-08-16T09:17:01.128Z,98119.03
2022-08-16T09:19:37.268Z,98120.81
2022-08-16T09:22:20.667Z,98126.50
2022-08-16T09:24:53.302Z,98134.91
2022-08-16T09:27:23.527Z,98136.91
2022-08-16T09:30:00.414Z,98128.44
2022-08-16T09:32:31.703Z,98122.69
2022-08-16T09:35:01.659Z,98131.78
2022-08-16T09:37:36.543Z,98132.91
2022-08-16T09:40:32.369Z,98131.22
2022-08-16T09:42:56.362Z,98127.41
2022-08-16T09:45:28.900Z,98118.09
2022-08-16T09:47:58.360Z,98122.28
2022-08-16T09:50:37.102Z,98129.88
2022-08-16T09:53:15.418Z,98126.44
2022-08-16T09:55:52.410Z,98124.66
2022-08-16T09:58:37.741Z,98119.53
2022-08-16T10:01:11.408Z,98117.13
2022-08-16T10:04:02.233Z,98116.94
2022-08-16T10:06:33.499Z,98115.34
2022-08-16T10:09:11.234Z,98112.25
2022-08-16T10:12:11.543Z,98107.31
2022-08-16T10:14:46.360Z,98106.03
2022-08-16T10:17:13.916Z,98110.88
2022-08-16T10:19:43.366Z,98114.34
2022-08-16T10:22:12.825Z,98108.16
2022-08-16T10:24:56.113Z,98104.03
2022-08-16T10:27:30.109Z,98098.91
2022-08-16T10:30:25.055Z,98101.22
2022-08-16T10:32:54.060Z,98091.72
2022-08-16T10:35:20.987Z,98095.44
2022-08-16T10:37:52.326Z,98090.66
2022-08-16T10:40:29.066Z,98093.84
2022-08-16T10:43:01.987Z,98093.25
2022-08-16T10:45:37.197Z,98086.03
2022-08-16T10:48:27.556Z,98091.56
2022-08-16T10:50:58.669Z,98093.34
2022-08-16T10:53:32.637Z,98091.91
2022-08-16T10:56:55.380Z,98087.97
2022-08-16T10:59:29.624Z,98080.50
2022-08-16T11:02:21.876Z,98084.09
2022-08-16T11:11:01.899Z,98094.81
2022-08-16T11:12:54.363Z,98087.06
2022-08-16T11:15:22.509Z,98083.59
2022-08-16T11:18:48.878Z,98082.22
2022-08-16T11:20:48.740Z,98077.72
2022-08-16T11:23:17.869Z,98085.06
2022-08-16T11:26:20.672Z,98085.06
2022-08-16T11:29:11.863Z,98088.06
2022-08-16T11:31:24.796Z,98085.53
2022-08-16T11:33:52.724Z,98085.59
2022-08-16T11:36:27.387Z,98081.06
2022-08-16T11:38:58.864Z,98081.50
2022-08-16T11:41:29.492Z,98081.47
2022-08-16T11:44:00.078Z,98082.97
2022-08-16T11:46:45.344Z,98082.16
2022-08-16T11:49:15.150Z,98083.63
2022-08-16T11:51:44.489Z,98070.91
2022-08-16T11:54:20.932Z,98078.66
2022-08-16T11:56:56.831Z,98080.31
2022-08-16T11:59:28.890Z,98073.47
2022-08-16T12:01:59.399Z,98071.97
2022-08-16T12:04:27.903Z,98067.41
2022-08-16T12:06:55.070Z,98075.63
2022-08-16T12:09:24.732Z,98072.13
2022-08-16T12:11:52.515Z,98073.38
2022-08-16T12:14:23.025Z,98068.69
2022-08-16T12:16:57.014Z,98066.34
2022-08-16T12:19:33.814Z,98076.31
2022-08-16T12:22:05.772Z,98070.88
2022-08-16T12:24:47.952Z,98067.16
2022-08-16T12:27:25.246Z,98061.09
2022-08-16T12:29:54.733Z,98053.41
2022-08-16T12:32:37.937Z,98060.09
2022-08-16T12:35:19.393Z,98057.00
2022-08-16T12:37:49.501Z,98053.69
2022-08-16T12:40:29.899Z,98056.22
2022-08-16T12:43:00.709Z,98053.56
2022-08-16T12:45:37.917Z,98054.19
2022-08-16T12:48:34.789Z,98057.13
2022-08-16T12:51:13.575Z,98051.91
2022-08-16T12:53:53.219Z,98063.00
2022-08-16T12:56:26.161Z,98051.09
2022-08-16T12:58:56.062Z,98043.78
2022-08-16T13:01:31.023Z,98034.16
2022-08-16T13:04:11.791Z,98038.34
2022-08-16T13:06:48.532Z,98044.19
2022-08-16T13:09:26.577Z,98037.72
2022-08-16T13:12:05.637Z,98036.69
2022-08-16T13:14:40.171Z,98031.25
2022-08-16T13:17:18.722Z,98029.41
2022-08-16T13:25:09.513Z,98030.44
2022-08-16T13:28:02.927Z,98024.84
2022-08-16T13:30:35.854Z,98026.94
2022-08-16T13:33:10.765Z,98035.72
2022-08-16T13:35:44.585Z,98032.41
2022-08-16T13:38:24.266Z,98028.22
2022-08-16T13:40:56.596Z,98029.47
2022-08-16T13:43:27.215Z,98031.16
2022-08-16T13:45:56.860Z,98025.09
2022-08-16T13:48:43.090Z,98020.91
2022-08-16T13:51:19.427Z,98014.03
2022-08-16T13:53:59.228Z,98019.28
2022-08-16T13:56:36.808Z,98008.16
2022-08-16T13:59:16.597Z,98019.69
2022-08-16T14:01:55.422Z,98013.59
2022-08-16T14:04:35.543Z,98007.75
2022-08-16T14:07:07.765Z,98004.00
2022-08-16T14:09:36.465Z,98005.88
2022-08-16T14:12:17.809Z,98005.66
2022-08-16T14:14:46.740Z,97997.50
2022-08-16T14:17:16.585Z,97998.16
2022-08-16T14:19:46.040Z,97994.56
2022-08-16T14:22:31.518Z,97996.25
2022-08-16T14:25:03.310Z,97991.44
2022-08-16T14:27:34.535Z,98002.31
2022-08-16T14:30:09.839Z,97993.13
2022-08-16T14:32:37.381Z,97995.22
2022-08-16T14:35:15.084Z,97993.31
2022-08-16T14:37:43.140Z,97992.06
2022-08-16T14:40:15.254Z,97993.94
2022-08-16T14:42:46.464Z,97986.41
2022-08-16T14:45:21.216Z,97986.41
2022-08-16T14:47:49.709Z,97987.88
2022-08-16T14:50:21.628Z,97990.19
2022-08-16T14:52:59.578Z,97989.34
2022-08-16T14:55:32.160Z,97987.69
2022-08-16T14:58:00.011Z,97992.28
2022-08-16T15:00:34.060Z,97994.56
2022-08-16T15:03:09.712Z,98001.47
2022-08-16T15:05:39.805Z,97995.81
2022-08-16T15:08:07.672Z,97995.41
2022-08-16T15:10:37.410Z,97992.28
2022-08-16T15:13:11.147Z,98012.34
2022-08-16T15:15:40.501Z,98009.41
2022-08-16T15:18:11.727Z,97998.53
2022-08-16T15:20:41.463Z,98006.50
2022-08-16T15:23:10.720Z,98007.75
2022-08-16T15:25:42.302Z,98006.72
2022-08-16T15:28:31.236Z,98015.75
2022-08-16T15:31:03.798Z,98006.34
2022-08-16T15:33:35.299Z,98017.19
2022-08-16T15:36:04.812Z,98009.00
2022-08-16T15:39:02.734Z,98003.16
2022-08-16T15:42:01.170Z,98002.13
2022-08-16T15:44:42.707Z,98009.66
2022-08-16T15:47:18.541Z,98012.78
2022-08-16T15:49:53.097Z,98004.41
2022-08-16T15:52:42.614Z,98007.75
2022-08-16T15:55:23.649Z,98011.91
2022-08-16T15:57:51.624Z,98010.25
2022-08-16T16:00:20.710Z,98006.06
2022-08-16T16:02:49.487Z,97995.66
2022-08-16T16:05:18.928Z,98006.56
2022-08-16T16:07:56.290Z,98002.50
2022-08-16T16:10:29.509Z,98006.34
2022-08-16T16:13:03.752Z,97999.34
2022-08-16T16:15:45.772Z,97999.50
2022-08-16T16:18:14.666Z,97996.97
2022-08-16T16:20:53.777Z,98005.41
2022-08-16T16:23:32.465Z,97990.50
2022-08-16T16:26:05.762Z,97995.50
2022-08-16T16:29:06.497Z,97997.16
2022-08-16T16:31:22.000Z,97998.19
2022-08-16T16:33:55.749Z,97995.44
2022-08-16T16:36:29.304Z,97988.53
2022-08-16T16:38:56.692Z,97984.97
2022-08-16T16:41:28.817Z,97986.75
2022-08-16T16:43:59.429Z,97983.31
2022-08-16T16:46:41.273Z,97981.13
2022-08-16T16:49:14.065Z,97977.78
2022-08-16T16:51:47.153Z,97981.81
2022-08-16T16:54:27.734Z,97985.38
2022-08-16T16:56:58.229Z,97972.19
2022-08-16T16:59:28.410Z,97978.28
2022-08-16T17:02:38.327Z,97979.53
2022-08-16T17:04:47.577Z,97978.88
2022-08-16T17:07:15.113Z,97984.81
2022-08-16T17:09:42.059Z,97984.63
2022-08-16T17:12:14.522Z,97982.78
2022-08-16T17:14:54.987Z,97988.25
2022-08-16T17:17:23.115Z,97983.47
2022-08-16T17:19:50.179Z,97984.72
2022-08-16T17:22:22.134Z,97982.25
2022-08-16T17:24:52.817Z,97987.69
2022-08-16T17:27:33.913Z,97983.50
2022-08-16T17:30:15.639Z,97984.34
2022-08-16T17:32:50.758Z,97991.44
2022-08-16T17:35:34.212Z,97997.06
2022-08-16T17:38:09.358Z,97995.81
2022-08-16T17:40:57.833Z,98000.84
2022-08-16T17:43:37.241Z,98005.47
2022-08-16T17:46:51.556Z,98008.59
2022-08-16T17:49:05.272Z,98017.78
2022-08-16T17:51:34.173Z,98016.09
2022-08-16T17:54:03.472Z,98014.63
2022-08-16T17:56:30.615Z,98021.53
2022-08-16T17:58:57.653Z,98025.69
2022-08-16T18:01:27.834Z,98028.00
2022-08-16T18:04:06.615Z,98029.22
2022-08-16T18:06:37.150Z,98025.91
2022-08-16T18:09:04.885Z,98038.22
2022-08-16T18:11:40.969Z,98036.91
2022-08-16T18:14:11.235Z,98049.06
2022-08-16T18:16:38.848Z,98050.47
2022-08-16T18:19:05.993Z,98048.59
2022-08-16T18:21:51.713Z,98061.09
2022-08-16T18:24:19.429Z,98064.03
2022-08-16T18:26:47.195Z,98067.78
2022-08-16T18:29:14.174Z,98066.97
2022-08-16T18:31:42.392Z,98061.31
2022-08-16T18:34:10.256Z,98066.06
2022-08-16T18:36:37.241Z,98061.50
2022-08-16T18:39:04.307Z,98070.69
2022-08-16T18:41:33.786Z,98066.28
2022-08-16T18:44:24.808Z,98068.56
2022-08-16T18:46:50.798Z,98074.00
2022-08-16T18:49:19.639Z,98073.56
2022-08-16T18:51:48.227Z,98070.22
2022-08-16T18:54:19.960Z,98070.41
2022-08-16T18:56:55.385Z,98074.38
2022-08-16T18:59:30.537Z,98076.44
2022-08-16T19:02:05.027Z,98077.69
2022-08-16T19:04:56.721Z,98076.41
2022-08-16T19:07:30.419Z,98075.78
2022-08-16T19:10:02.304Z,98086.16
2022-08-16T19:12:37.740Z,98079.47
2022-08-16T19:15:20.224Z,98088.44
2022-08-16T19:17:48.030Z,98098.03
2022-08-16T19:20:20.273Z,98097.56
2022-08-16T19:23:04.705Z,98096.50
2022-08-16T19:25:49.127Z,98105.22
2022-08-16T19:28:49.360Z,98104.97
2022-08-16T19:31:31.175Z,98109.78
2022-08-16T19:33:59.841Z,98115.97
2022-08-16T19:36:35.346Z,98111.59
2022-08-16T19:39:15.018Z,98119.50
2022-08-16T19:41:53.146Z,98116.34
2022-08-16T19:44:23.337Z,98120.09
2022-08-16T19:46:50.898Z,98119.63
2022-08-16T19:49:21.667Z,98120.47
2022-08-16T19:51:48.862Z,98127.97
2022-08-16T19:54:17.556Z,98126.09
2022-08-16T19:56:44.778Z,98134.41
2022-08-16T19:59:21.005Z,98135.28
2022-08-16T20:01:55.306Z,98126.47
2022-08-16T20:04:23.628Z,98130.25
2022-08-16T20:06:53.249Z,98134.84
2022-08-16T20:09:24.706Z,98142.13
2022-08-16T20:11:54.392Z,98141.47
2022-08-16T20:14:25.246Z,98142.50
2022-08-16T20:16:57.494Z,98145.22
2022-08-16T20:19:27.767Z,98147.91
2022-08-16T20:21:56.558Z,98143.72
2022-08-16T20:24:39.672Z,98140.56
2022-08-16T20:27:09.817Z,98136.34
2022-08-16T20:29:40.978Z,98141.31
2022-08-16T20:32:12.132Z,98139.66
2022-08-16T20:34:44.366Z,98137.31
2022-08-16T20:37:12.815Z,98140.22
2022-08-16T20:39:40.590Z,98140.22
2022-08-16T20:42:08.091Z,98141.25
2022-08-16T20:44:34.953Z,98138.72
2022-08-16T20:47:01.785Z,98135.38
2022-08-16T20:49:29.030Z,98141.00
2022-08-16T20:51:59.351Z,98142.03
2022-08-16T20:54:29.431Z,98134.94
2022-08-16T20:56:56.947Z,98142.78
2022-08-16T20:59:24.010Z,98145.88
2022-08-16T21:01:51.090Z,98142.72
2022-08-16T21:04:22.631Z,98148.72
2022-08-16T21:06:53.622Z,98143.84
2022-08-16T21:09:28.854Z,98145.94
2022-08-16T21:11:59.073Z,98144.28
2022-08-16T21:14:27.841Z,98144.47
2022-08-16T21:16:55.927Z,98140.06
2022-08-16T21:19:23.103Z,98140.44
2022-08-16T21:21:50.246Z,98131.66
2022-08-16T21:24:17.339Z,98137.25
2022-08-16T21:26:55.175Z,98142.88
2022-08-16T21:29:28.469Z,98142.88
2022-08-16T21:32:15.134Z,98142.41
2022-08-16T21:34:43.259Z,98149.22
2022-08-16T21:37:11.722Z,98143.34
2022-08-16T21:39:42.475Z,98145.56
2022-08-16T21:42:17.163Z,98147.63
2022-08-16T21:44:45.037Z,98137.84
2022-08-16T21:47:12.432Z,98140.75
2022-08-16T21:49:40.113Z,98139.25
2022-08-16T21:52:09.494Z,98142.31
2022-08-16T21:54:52.115Z,98140.84
2022-08-16T21:57:23.150Z,98144.94
2022-08-16T21:59:52.317Z,98141.78
2022-08-16T22:02:22.978Z,98144.03
2022-08-16T22:04:50.386Z,98150.69
2022-08-16T22:07:18.270Z,98150.22
2022-08-16T22:09:48.623Z,98146.19
2022-08-16T22:12:27.416Z,98153.00
2022-08-16T22:14:54.939Z,98152.91
2022-08-16T22:17:21.847Z,98151.84
2022-08-16T22:19:48.769Z,98156.53
2022-08-16T22:22:15.819Z,98160.25
2022-08-16T22:24:42.631Z,98158.09
2022-08-16T22:27:09.633Z,98158.28
2022-08-16T22:29:38.237Z,98157.63
2022-08-16T22:32:09.332Z,98161.25
2022-08-16T22:34:36.151Z,98161.63
2022-08-16T22:37:03.302Z,98156.38
2022-08-16T22:39:30.311Z,98166.19
2022-08-16T22:41:57.210Z,98167.22
2022-08-16T22:44:24.693Z,98164.91
2022-08-16T22:46:51.578Z,98171.97
2022-08-16T22:49:18.865Z,98164.22
2022-08-16T22:51:46.400Z,98163.06
2022-08-16T22:54:43.775Z,98156.16
2022-08-16T22:57:00.682Z,98161.75
2022-08-16T22:59:30.331Z,98160.72
2022-08-16T23:01:57.997Z,98166.50
2022-08-16T23:04:25.524Z,98165.16
2022-08-16T23:06:52.680Z,98157.81
2022-08-16T23:09:19.677Z,98161.44
2022-08-16T23:11:46.757Z,98163.34
2022-08-16T23:14:13.762Z,98161.00
2022-08-16T23:16:40.573Z,98156.13
2022-08-16T23:19:13.241Z,98160.69
2022-08-16T23:21:44.624Z,98156.69
2022-08-16T23:24:13.263Z,98154.03
2022-08-16T23:26:45.900Z,98148.97
2022-08-16T23:29:26.278Z,98153.19
2022-08-16T23:32:10.857Z,98149.03
2022-08-16T23:34:38.420Z,98149.56
2022-08-16T23:37:06.530Z,98146.97
2022-08-16T23:39:33.653Z,98147.84
2022-08-16T23:42:01.293Z,98150.72
2022-08-16T23:44:42.379Z,98142.97
2022-08-16T23:47:15.046Z,98143.97
2022-08-16T23:49:59.556Z,98145.19
2022-08-16T23:52:42.142Z,98148.41
2022-08-16T23:55:16.348Z,98144.00
2022-08-16T23:57:45.107Z,98144.38
